sensor_id;sensor_type;location;lat;lon;timestamp;temperature;humidity
23291;DHT22;11814;44.686;10.842;2023-08-30T00:00:42;19.50;99.90
23291;DHT22;11814;44.686;10.842;2023-08-30T00:03:08;19.50;99.90
23291;DHT22;11814;44.686;10.842;2023-08-30T00:05:33;19.50;99.90
23291;DHT22;11814;44.686;10.842;2023-08-30T00:07:59;19.50;99.90
23291;DHT22;11814;44.686;10.842;2023-08-30T00:10:25;19.50;99.90
23291;DHT22;11814;44.686;10.842;2023-08-30T00:12:51;19.50;99.90
23291;DHT22;11814;44.686;10.842;2023-08-30T00:15:16;19.50;99.90
23291;DHT22;11814;44.686;10.842;2023-08-30T00:17:42;19.50;99.90
23291;DHT22;11814;44.686;10.842;2023-08-30T00:20:09;19.40;99.90
23291;DHT22;11814;44.686;10.842;2023-08-30T00:22:34;19.40;99.90
23291;DHT22;11814;44.686;10.842;2023-08-30T00:25:01;19.40;99.90
23291;DHT22;11814;44.686;10.842;2023-08-30T00:27:27;19.40;99.90
23291;DHT22;11814;44.686;10.842;2023-08-30T00:29:53;19.50;99.90
23291;DHT22;11814;44.686;10.842;2023-08-30T00:32:18;19.50;99.90
23291;DHT22;11814;44.686;10.842;2023-08-30T00:34:44;19.50;99.90
23291;DHT22;11814;44.686;10.842;2023-08-30T00:37:10;19.50;99.90
23291;DHT22;11814;44.686;10.842;2023-08-30T00:39:39;19.50;99.90
23291;DHT22;11814;44.686;10.842;2023-08-30T00:42:05;19.50;99.90
23291;DHT22;11814;44.686;10.842;2023-08-30T00:44:35;19.50;99.90
23291;DHT22;11814;44.686;10.842;2023-08-30T00:47:02;19.50;99.90
23291;DHT22;11814;44.686;10.842;2023-08-30T00:49:32;19.50;99.90
23291;DHT22;11814;44.686;10.842;2023-08-30T00:51:59;19.50;99.90
23291;DHT22;11814;44.686;10.842;2023-08-30T00:54:26;19.60;99.90
23291;DHT22;11814;44.686;10.842;2023-08-30T00:56:52;19.60;99.90
23291;DHT22;11814;44.686;10.842;2023-08-30T00:59:18;19.60;99.90
23291;DHT22;11814;44.686;10.842;2023-08-30T01:01:44;19.60;99.90
23291;DHT22;11814;44.686;10.842;2023-08-30T01:04:11;19.70;99.90
23291;DHT22;11814;44.686;10.842;2023-08-30T01:06:36;19.70;99.90
23291;DHT22;11814;44.686;10.842;2023-08-30T01:09:03;19.70;99.90
23291;DHT22;11814;44.686;10.842;2023-08-30T01:14:35;19.70;99.90
23291;DHT22;11814;44.686;10.842;2023-08-30T01:17:04;19.70;99.90
23291;DHT22;11814;44.686;10.842;2023-08-30T01:22:11;19.60;99.90
23291;DHT22;11814;44.686;10.842;2023-08-30T01:24:48;19.60;99.90
23291;DHT22;11814;44.686;10.842;2023-08-30T01:27:18;19.60;99.90
23291;DHT22;11814;44.686;10.842;2023-08-30T01:29:46;19.60;99.90
23291;DHT22;11814;44.686;10.842;2023-08-30T01:32:12;19.60;99.90
23291;DHT22;11814;44.686;10.842;2023-08-30T01:34:39;19.70;99.90
23291;DHT22;11814;44.686;10.842;2023-08-30T01:37:07;19.70;99.90
23291;DHT22;11814;44.686;10.842;2023-08-30T01:39:36;19.70;99.90
23291;DHT22;11814;44.686;10.842;2023-08-30T01:42:04;19.70;99.90
23291;DHT22;11814;44.686;10.842;2023-08-30T01:44:30;19.70;99.90
23291;DHT22;11814;44.686;10.842;2023-08-30T01:46:57;19.70;99.90
23291;DHT22;11814;44.686;10.842;2023-08-30T01:49:24;19.70;99.90
23291;DHT22;11814;44.686;10.842;2023-08-30T01:51:51;19.70;99.90
23291;DHT22;11814;44.686;10.842;2023-08-30T01:54:18;19.70;99.90
23291;DHT22;11814;44.686;10.842;2023-08-30T01:56:45;19.70;99.90
23291;DHT22;11814;44.686;10.842;2023-08-30T01:59:11;19.70;99.90
23291;DHT22;11814;44.686;10.842;2023-08-30T02:01:37;19.70;99.90
23291;DHT22;11814;44.686;10.842;2023-08-30T02:04:03;19.70;99.90
23291;DHT22;11814;44.686;10.842;2023-08-30T02:06:45;19.70;99.90
23291;DHT22;11814;44.686;10.842;2023-08-30T02:12:17;19.60;99.90
23291;DHT22;11814;44.686;10.842;2023-08-30T02:14:47;19.70;99.90
23291;DHT22;11814;44.686;10.842;2023-08-30T02:17:17;19.70;99.90
23291;DHT22;11814;44.686;10.842;2023-08-30T02:19:44;19.60;99.90
23291;DHT22;11814;44.686;10.842;2023-08-30T02:22:10;19.60;99.90
23291;DHT22;11814;44.686;10.842;2023-08-30T02:24:36;19.50;99.90
23291;DHT22;11814;44.686;10.842;2023-08-30T02:27:01;19.50;99.90
23291;DHT22;11814;44.686;10.842;2023-08-30T02:29:27;19.50;99.90
23291;DHT22;11814;44.686;10.842;2023-08-30T02:31:53;19.50;99.90
23291;DHT22;11814;44.686;10.842;2023-08-30T02:34:18;19.60;99.90
23291;DHT22;11814;44.686;10.842;2023-08-30T02:36:44;19.60;99.90
23291;DHT22;11814;44.686;10.842;2023-08-30T02:39:11;19.60;99.90
23291;DHT22;11814;44.686;10.842;2023-08-30T02:41:37;19.60;99.90
23291;DHT22;11814;44.686;10.842;2023-08-30T02:44:04;19.70;99.90
23291;DHT22;11814;44.686;10.842;2023-08-30T02:46:30;19.70;99.90
23291;DHT22;11814;44.686;10.842;2023-08-30T02:48:55;19.70;99.90
23291;DHT22;11814;44.686;10.842;2023-08-30T02:51:21;19.70;99.90
23291;DHT22;11814;44.686;10.842;2023-08-30T02:53:47;19.70;99.90
23291;DHT22;11814;44.686;10.842;2023-08-30T02:56:12;19.70;99.90
23291;DHT22;11814;44.686;10.842;2023-08-30T02:58:38;19.70;99.90
23291;DHT22;11814;44.686;10.842;2023-08-30T03:01:03;19.70;99.90
23291;DHT22;11814;44.686;10.842;2023-08-30T03:03:29;19.70;99.90
23291;DHT22;11814;44.686;10.842;2023-08-30T03:05:55;19.70;99.90
23291;DHT22;11814;44.686;10.842;2023-08-30T03:08:20;19.70;99.90
23291;DHT22;11814;44.686;10.842;2023-08-30T03:10:46;19.60;99.90
23291;DHT22;11814;44.686;10.842;2023-08-30T03:13:11;19.60;99.90
23291;DHT22;11814;44.686;10.842;2023-08-30T03:15:37;19.50;99.90
23291;DHT22;11814;44.686;10.842;2023-08-30T03:18:03;19.50;99.90
23291;DHT22;11814;44.686;10.842;2023-08-30T03:20:28;19.50;99.90
23291;DHT22;11814;44.686;10.842;2023-08-30T03:22:56;19.50;99.90
23291;DHT22;11814;44.686;10.842;2023-08-30T03:25:22;19.50;99.90
23291;DHT22;11814;44.686;10.842;2023-08-30T03:27:48;19.50;99.90
23291;DHT22;11814;44.686;10.842;2023-08-30T03:30:13;19.40;99.90
23291;DHT22;11814;44.686;10.842;2023-08-30T03:32:39;19.40;99.90
23291;DHT22;11814;44.686;10.842;2023-08-30T03:35:05;19.40;99.90
23291;DHT22;11814;44.686;10.842;2023-08-30T03:37:31;19.40;99.90
23291;DHT22;11814;44.686;10.842;2023-08-30T03:39:57;19.30;99.90
23291;DHT22;11814;44.686;10.842;2023-08-30T03:42:22;19.30;99.90
23291;DHT22;11814;44.686;10.842;2023-08-30T03:44:48;19.30;99.90
23291;DHT22;11814;44.686;10.842;2023-08-30T03:47:14;19.30;99.90
23291;DHT22;11814;44.686;10.842;2023-08-30T03:49:39;19.30;99.90
23291;DHT22;11814;44.686;10.842;2023-08-30T03:52:05;19.30;99.90
23291;DHT22;11814;44.686;10.842;2023-08-30T03:54:31;19.30;99.90
23291;DHT22;11814;44.686;10.842;2023-08-30T03:56:57;19.20;99.90
23291;DHT22;11814;44.686;10.842;2023-08-30T03:59:23;19.30;99.90
23291;DHT22;11814;44.686;10.842;2023-08-30T04:01:50;19.30;99.90
23291;DHT22;11814;44.686;10.842;2023-08-30T04:04:16;19.30;99.90
23291;DHT22;11814;44.686;10.842;2023-08-30T04:06:42;19.30;99.90
23291;DHT22;11814;44.686;10.842;2023-08-30T04:09:08;19.30;99.90
23291;DHT22;11814;44.686;10.842;2023-08-30T04:11:33;19.30;99.90
23291;DHT22;11814;44.686;10.842;2023-08-30T04:13:59;19.20;99.90
23291;DHT22;11814;44.686;10.842;2023-08-30T04:16:25;19.20;99.90
23291;DHT22;11814;44.686;10.842;2023-08-30T04:18:50;19.10;99.90
23291;DHT22;11814;44.686;10.842;2023-08-30T04:21:16;19.10;99.90
23291;DHT22;11814;44.686;10.842;2023-08-30T04:23:42;19.10;99.90
23291;DHT22;11814;44.686;10.842;2023-08-30T04:26:07;19.10;99.90
23291;DHT22;11814;44.686;10.842;2023-08-30T04:28:33;19.10;99.90
23291;DHT22;11814;44.686;10.842;2023-08-30T04:30:58;19.00;99.90
23291;DHT22;11814;44.686;10.842;2023-08-30T04:33:25;18.90;99.90
23291;DHT22;11814;44.686;10.842;2023-08-30T04:35:52;18.90;99.90
23291;DHT22;11814;44.686;10.842;2023-08-30T04:38:18;18.80;99.90
23291;DHT22;11814;44.686;10.842;2023-08-30T04:40:43;18.80;99.90
23291;DHT22;11814;44.686;10.842;2023-08-30T04:43:09;18.80;99.90
23291;DHT22;11814;44.686;10.842;2023-08-30T04:45:35;18.80;99.90
23291;DHT22;11814;44.686;10.842;2023-08-30T04:48:01;18.80;99.90
23291;DHT22;11814;44.686;10.842;2023-08-30T04:50:26;18.80;99.90
23291;DHT22;11814;44.686;10.842;2023-08-30T04:52:52;18.80;99.90
23291;DHT22;11814;44.686;10.842;2023-08-30T04:55:18;18.80;99.90
23291;DHT22;11814;44.686;10.842;2023-08-30T04:57:43;18.80;99.90
23291;DHT22;11814;44.686;10.842;2023-08-30T05:00:13;18.80;99.90
23291;DHT22;11814;44.686;10.842;2023-08-30T05:02:39;18.80;99.90
23291;DHT22;11814;44.686;10.842;2023-08-30T05:05:06;18.80;99.90
23291;DHT22;11814;44.686;10.842;2023-08-30T05:07:32;18.80;99.90
23291;DHT22;11814;44.686;10.842;2023-08-30T05:09:58;18.80;99.90
23291;DHT22;11814;44.686;10.842;2023-08-30T05:12:24;18.80;99.90
23291;DHT22;11814;44.686;10.842;2023-08-30T05:14:49;18.90;99.90
23291;DHT22;11814;44.686;10.842;2023-08-30T05:17:15;19.00;99.90
23291;DHT22;11814;44.686;10.842;2023-08-30T05:19:40;19.00;99.90
23291;DHT22;11814;44.686;10.842;2023-08-30T05:22:06;19.00;99.90
23291;DHT22;11814;44.686;10.842;2023-08-30T05:24:32;19.00;99.90
23291;DHT22;11814;44.686;10.842;2023-08-30T05:26:59;19.10;99.90
23291;DHT22;11814;44.686;10.842;2023-08-30T05:29:24;19.20;99.90
23291;DHT22;11814;44.686;10.842;2023-08-30T05:31:50;19.30;99.90
23291;DHT22;11814;44.686;10.842;2023-08-30T05:34:16;19.40;99.90
23291;DHT22;11814;44.686;10.842;2023-08-30T05:36:41;19.50;99.90
23291;DHT22;11814;44.686;10.842;2023-08-30T05:39:07;19.80;99.90
23291;DHT22;11814;44.686;10.842;2023-08-30T05:41:33;20.10;99.90
23291;DHT22;11814;44.686;10.842;2023-08-30T05:43:58;20.40;99.90
23291;DHT22;11814;44.686;10.842;2023-08-30T05:46:24;20.50;99.90
23291;DHT22;11814;44.686;10.842;2023-08-30T05:48:50;20.60;99.90
23291;DHT22;11814;44.686;10.842;2023-08-30T05:51:16;20.60;99.90
23291;DHT22;11814;44.686;10.842;2023-08-30T05:53:41;20.60;99.90
23291;DHT22;11814;44.686;10.842;2023-08-30T05:56:07;20.60;99.90
23291;DHT22;11814;44.686;10.842;2023-08-30T05:58:33;20.60;99.90
23291;DHT22;11814;44.686;10.842;2023-08-30T06:00:58;20.60;99.90
23291;DHT22;11814;44.686;10.842;2023-08-30T06:03:25;20.60;99.90
23291;DHT22;11814;44.686;10.842;2023-08-30T06:05:53;20.60;99.90
23291;DHT22;11814;44.686;10.842;2023-08-30T06:08:19;20.70;99.90
23291;DHT22;11814;44.686;10.842;2023-08-30T06:10:44;20.70;99.90
23291;DHT22;11814;44.686;10.842;2023-08-30T06:13:10;20.70;99.90
23291;DHT22;11814;44.686;10.842;2023-08-30T06:15:36;20.80;99.90
23291;DHT22;11814;44.686;10.842;2023-08-30T06:18:03;21.00;99.90
23291;DHT22;11814;44.686;10.842;2023-08-30T06:20:29;21.10;99.90
23291;DHT22;11814;44.686;10.842;2023-08-30T06:22:58;21.20;99.90
23291;DHT22;11814;44.686;10.842;2023-08-30T06:25:24;21.30;99.90
23291;DHT22;11814;44.686;10.842;2023-08-30T06:27:57;21.50;99.90
23291;DHT22;11814;44.686;10.842;2023-08-30T06:30:25;21.60;99.90
23291;DHT22;11814;44.686;10.842;2023-08-30T06:32:51;21.60;99.90
23291;DHT22;11814;44.686;10.842;2023-08-30T06:35:16;21.70;99.90
23291;DHT22;11814;44.686;10.842;2023-08-30T06:37:42;21.90;99.90
23291;DHT22;11814;44.686;10.842;2023-08-30T06:40:08;22.30;99.90
23291;DHT22;11814;44.686;10.842;2023-08-30T06:42:34;22.60;99.90
23291;DHT22;11814;44.686;10.842;2023-08-30T06:44:59;23.00;99.90
23291;DHT22;11814;44.686;10.842;2023-08-30T06:47:25;23.30;99.90
23291;DHT22;11814;44.686;10.842;2023-08-30T06:49:50;23.40;99.90
23291;DHT22;11814;44.686;10.842;2023-08-30T06:52:16;23.60;99.90
23291;DHT22;11814;44.686;10.842;2023-08-30T06:54:42;23.50;99.90
23291;DHT22;11814;44.686;10.842;2023-08-30T06:57:07;23.50;99.90
23291;DHT22;11814;44.686;10.842;2023-08-30T06:59:34;23.40;99.90
23291;DHT22;11814;44.686;10.842;2023-08-30T07:02:00;23.40;99.90
23291;DHT22;11814;44.686;10.842;2023-08-30T07:04:25;23.40;99.90
23291;DHT22;11814;44.686;10.842;2023-08-30T07:06:51;23.40;99.50
23291;DHT22;11814;44.686;10.842;2023-08-30T07:09:17;23.40;99.10
23291;DHT22;11814;44.686;10.842;2023-08-30T07:11:43;23.40;98.70
23291;DHT22;11814;44.686;10.842;2023-08-30T07:14:10;23.40;98.50
23291;DHT22;11814;44.686;10.842;2023-08-30T07:16:36;23.40;98.20
23291;DHT22;11814;44.686;10.842;2023-08-30T07:19:02;23.40;98.10
23291;DHT22;11814;44.686;10.842;2023-08-30T07:21:28;23.40;97.90
23291;DHT22;11814;44.686;10.842;2023-08-30T07:23:53;23.30;97.80
23291;DHT22;11814;44.686;10.842;2023-08-30T07:26:19;23.30;98.10
23291;DHT22;11814;44.686;10.842;2023-08-30T07:28:45;23.30;97.40
23291;DHT22;11814;44.686;10.842;2023-08-30T07:31:11;23.30;96.70
23291;DHT22;11814;44.686;10.842;2023-08-30T07:33:40;23.20;96.50
23291;DHT22;11814;44.686;10.842;2023-08-30T07:36:07;23.20;96.10
23291;DHT22;11814;44.686;10.842;2023-08-30T07:38:33;23.20;96.30
23291;DHT22;11814;44.686;10.842;2023-08-30T07:41:00;23.20;96.70
23291;DHT22;11814;44.686;10.842;2023-08-30T07:43:26;23.40;97.10
23291;DHT22;11814;44.686;10.842;2023-08-30T07:45:52;23.10;97.00
23291;DHT22;11814;44.686;10.842;2023-08-30T07:48:17;23.20;96.70
23291;DHT22;11814;44.686;10.842;2023-08-30T07:50:43;23.30;96.30
23291;DHT22;11814;44.686;10.842;2023-08-30T07:53:09;23.30;95.30
23291;DHT22;11814;44.686;10.842;2023-08-30T07:55:36;23.30;94.00
23291;DHT22;11814;44.686;10.842;2023-08-30T07:58:01;23.40;93.90
23291;DHT22;11814;44.686;10.842;2023-08-30T08:00:29;23.60;93.00
23291;DHT22;11814;44.686;10.842;2023-08-30T08:02:54;23.60;91.20
23291;DHT22;11814;44.686;10.842;2023-08-30T08:05:20;23.70;90.10
23291;DHT22;11814;44.686;10.842;2023-08-30T08:07:50;23.80;89.00
23291;DHT22;11814;44.686;10.842;2023-08-30T08:10:15;23.80;87.10
23291;DHT22;11814;44.686;10.842;2023-08-30T08:12:41;23.90;85.40
23291;DHT22;11814;44.686;10.842;2023-08-30T08:15:07;23.90;84.60
23291;DHT22;11814;44.686;10.842;2023-08-30T08:17:32;23.90;83.60
23291;DHT22;11814;44.686;10.842;2023-08-30T08:19:58;23.90;83.20
23291;DHT22;11814;44.686;10.842;2023-08-30T08:22:24;23.90;82.40
23291;DHT22;11814;44.686;10.842;2023-08-30T08:24:49;23.90;82.10
23291;DHT22;11814;44.686;10.842;2023-08-30T08:27:17;24.00;82.30
23291;DHT22;11814;44.686;10.842;2023-08-30T08:29:42;24.00;82.10
23291;DHT22;11814;44.686;10.842;2023-08-30T08:32:08;24.00;81.70
23291;DHT22;11814;44.686;10.842;2023-08-30T08:34:34;24.00;80.70
23291;DHT22;11814;44.686;10.842;2023-08-30T08:36:59;24.00;80.70
23291;DHT22;11814;44.686;10.842;2023-08-30T08:39:25;24.10;80.80
23291;DHT22;11814;44.686;10.842;2023-08-30T08:41:51;24.10;80.40
23291;DHT22;11814;44.686;10.842;2023-08-30T08:44:21;24.00;80.50
23291;DHT22;11814;44.686;10.842;2023-08-30T08:46:48;24.00;80.10
23291;DHT22;11814;44.686;10.842;2023-08-30T08:49:15;24.00;79.20
23291;DHT22;11814;44.686;10.842;2023-08-30T08:51:42;24.00;78.20
23291;DHT22;11814;44.686;10.842;2023-08-30T08:54:09;24.00;78.10
23291;DHT22;11814;44.686;10.842;2023-08-30T08:56:35;24.00;78.10
23291;DHT22;11814;44.686;10.842;2023-08-30T08:59:02;24.00;78.30
23291;DHT22;11814;44.686;10.842;2023-08-30T09:01:28;24.00;77.40
23291;DHT22;11814;44.686;10.842;2023-08-30T09:03:54;24.00;77.10
23291;DHT22;11814;44.686;10.842;2023-08-30T09:06:21;24.00;76.60
23291;DHT22;11814;44.686;10.842;2023-08-30T09:08:47;24.20;76.20
23291;DHT22;11814;44.686;10.842;2023-08-30T09:11:12;24.40;75.90
23291;DHT22;11814;44.686;10.842;2023-08-30T09:13:38;24.50;74.80
23291;DHT22;11814;44.686;10.842;2023-08-30T09:16:16;24.60;74.40
23291;DHT22;11814;44.686;10.842;2023-08-30T09:18:42;24.80;73.50
23291;DHT22;11814;44.686;10.842;2023-08-30T09:21:11;24.80;74.00
23291;DHT22;11814;44.686;10.842;2023-08-30T09:23:37;24.80;73.20
23291;DHT22;11814;44.686;10.842;2023-08-30T09:26:04;24.90;72.90
23291;DHT22;11814;44.686;10.842;2023-08-30T09:28:30;24.90;73.00
23291;DHT22;11814;44.686;10.842;2023-08-30T09:30:58;25.00;73.50
23291;DHT22;11814;44.686;10.842;2023-08-30T09:33:32;25.00;73.50
23291;DHT22;11814;44.686;10.842;2023-08-30T09:35:59;24.90;72.20
23291;DHT22;11814;44.686;10.842;2023-08-30T09:38:25;24.80;71.90
23291;DHT22;11814;44.686;10.842;2023-08-30T09:40:51;24.90;72.10
23291;DHT22;11814;44.686;10.842;2023-08-30T09:43:20;25.00;73.00
23291;DHT22;11814;44.686;10.842;2023-08-30T09:45:52;25.00;72.60
23291;DHT22;11814;44.686;10.842;2023-08-30T09:48:38;25.20;72.80
23291;DHT22;11814;44.686;10.842;2023-08-30T09:51:07;25.20;72.20
23291;DHT22;11814;44.686;10.842;2023-08-30T09:53:37;25.20;72.00
23291;DHT22;11814;44.686;10.842;2023-08-30T09:56:06;25.30;71.50
23291;DHT22;11814;44.686;10.842;2023-08-30T09:58:34;25.40;71.20
23291;DHT22;11814;44.686;10.842;2023-08-30T10:01:00;25.40;71.00
23291;DHT22;11814;44.686;10.842;2023-08-30T10:03:29;25.60;71.30
23291;DHT22;11814;44.686;10.842;2023-08-30T10:05:56;25.50;70.70
23291;DHT22;11814;44.686;10.842;2023-08-30T10:08:25;25.50;71.10
23291;DHT22;11814;44.686;10.842;2023-08-30T10:10:58;25.50;70.90
23291;DHT22;11814;44.686;10.842;2023-08-30T10:13:25;25.50;70.80
23291;DHT22;11814;44.686;10.842;2023-08-30T10:15:56;25.70;71.10
23291;DHT22;11814;44.686;10.842;2023-08-30T10:18:25;25.70;70.60
23291;DHT22;11814;44.686;10.842;2023-08-30T10:20:54;25.70;70.60
23291;DHT22;11814;44.686;10.842;2023-08-30T10:23:21;25.80;70.50
23291;DHT22;11814;44.686;10.842;2023-08-30T10:25:49;25.80;70.40
23291;DHT22;11814;44.686;10.842;2023-08-30T10:28:16;26.00;70.40
23291;DHT22;11814;44.686;10.842;2023-08-30T10:30:42;26.00;70.00
23291;DHT22;11814;44.686;10.842;2023-08-30T10:33:13;26.10;69.30
23291;DHT22;11814;44.686;10.842;2023-08-30T10:35:48;26.10;69.20
23291;DHT22;11814;44.686;10.842;2023-08-30T10:38:28;26.10;69.70
23291;DHT22;11814;44.686;10.842;2023-08-30T10:40:54;26.20;68.90
23291;DHT22;11814;44.686;10.842;2023-08-30T10:43:31;26.10;68.40
23291;DHT22;11814;44.686;10.842;2023-08-30T10:46:04;26.00;68.40
23291;DHT22;11814;44.686;10.842;2023-08-30T10:48:39;26.10;68.60
23291;DHT22;11814;44.686;10.842;2023-08-30T10:51:20;26.00;68.30
23291;DHT22;11814;44.686;10.842;2023-08-30T10:53:57;26.00;68.10
23291;DHT22;11814;44.686;10.842;2023-08-30T10:56:30;26.00;67.90
23291;DHT22;11814;44.686;10.842;2023-08-30T10:58:56;26.00;67.30
23291;DHT22;11814;44.686;10.842;2023-08-30T11:01:23;26.00;67.30
23291;DHT22;11814;44.686;10.842;2023-08-30T11:03:49;26.00;66.70
23291;DHT22;11814;44.686;10.842;2023-08-30T11:06:16;26.00;66.90
23291;DHT22;11814;44.686;10.842;2023-08-30T11:08:43;26.10;66.50
23291;DHT22;11814;44.686;10.842;2023-08-30T11:11:10;26.20;65.80
23291;DHT22;11814;44.686;10.842;2023-08-30T11:13:37;26.40;65.90
23291;DHT22;11814;44.686;10.842;2023-08-30T11:16:03;26.50;66.00
23291;DHT22;11814;44.686;10.842;2023-08-30T11:18:39;26.60;65.90
23291;DHT22;11814;44.686;10.842;2023-08-30T11:21:05;26.70;65.40
23291;DHT22;11814;44.686;10.842;2023-08-30T11:23:31;26.70;64.80
23291;DHT22;11814;44.686;10.842;2023-08-30T11:25:58;26.80;64.50
23291;DHT22;11814;44.686;10.842;2023-08-30T11:28:26;26.80;63.80
23291;DHT22;11814;44.686;10.842;2023-08-30T11:30:55;26.70;63.30
23291;DHT22;11814;44.686;10.842;2023-08-30T11:33:21;26.70;63.20
23291;DHT22;11814;44.686;10.842;2023-08-30T11:35:51;26.80;63.50
23291;DHT22;11814;44.686;10.842;2023-08-30T11:38:20;26.90;64.20
23291;DHT22;11814;44.686;10.842;2023-08-30T11:40:49;26.90;64.00
23291;DHT22;11814;44.686;10.842;2023-08-30T11:43:15;27.00;63.50
23291;DHT22;11814;44.686;10.842;2023-08-30T11:45:41;26.90;63.10
23291;DHT22;11814;44.686;10.842;2023-08-30T11:48:06;26.90;63.40
23291;DHT22;11814;44.686;10.842;2023-08-30T11:50:33;26.90;63.20
23291;DHT22;11814;44.686;10.842;2023-08-30T11:52:59;26.80;62.90
23291;DHT22;11814;44.686;10.842;2023-08-30T11:55:26;26.70;62.90
23291;DHT22;11814;44.686;10.842;2023-08-30T11:57:52;26.70;62.90
23291;DHT22;11814;44.686;10.842;2023-08-30T12:00:21;26.80;62.80
23291;DHT22;11814;44.686;10.842;2023-08-30T12:02:46;26.80;62.40
23291;DHT22;11814;44.686;10.842;2023-08-30T12:05:13;26.80;62.00
23291;DHT22;11814;44.686;10.842;2023-08-30T12:07:39;26.90;62.20
23291;DHT22;11814;44.686;10.842;2023-08-30T12:10:06;27.00;62.40
23291;DHT22;11814;44.686;10.842;2023-08-30T12:12:31;27.00;61.60
23291;DHT22;11814;44.686;10.842;2023-08-30T12:14:57;27.00;62.10
23291;DHT22;11814;44.686;10.842;2023-08-30T12:17:23;27.00;62.40
23291;DHT22;11814;44.686;10.842;2023-08-30T12:19:59;27.00;62.20
23291;DHT22;11814;44.686;10.842;2023-08-30T12:22:43;27.00;62.40
23291;DHT22;11814;44.686;10.842;2023-08-30T12:25:19;27.20;62.50
23291;DHT22;11814;44.686;10.842;2023-08-30T12:27:46;27.20;61.90
23291;DHT22;11814;44.686;10.842;2023-08-30T12:30:13;27.20;61.60
23291;DHT22;11814;44.686;10.842;2023-08-30T12:32:40;27.10;61.60
23291;DHT22;11814;44.686;10.842;2023-08-30T12:35:05;27.10;61.40
23291;DHT22;11814;44.686;10.842;2023-08-30T12:37:31;27.20;61.50
23291;DHT22;11814;44.686;10.842;2023-08-30T12:39:57;27.20;61.30
23291;DHT22;11814;44.686;10.842;2023-08-30T12:42:22;27.20;61.10
23291;DHT22;11814;44.686;10.842;2023-08-30T12:44:48;27.30;61.20
23291;DHT22;11814;44.686;10.842;2023-08-30T12:47:14;27.30;61.30
23291;DHT22;11814;44.686;10.842;2023-08-30T12:49:40;27.20;60.90
23291;DHT22;11814;44.686;10.842;2023-08-30T12:52:06;27.20;60.80
23291;DHT22;11814;44.686;10.842;2023-08-30T12:54:32;27.00;60.20
23291;DHT22;11814;44.686;10.842;2023-08-30T12:56:58;27.00;60.20
23291;DHT22;11814;44.686;10.842;2023-08-30T12:59:23;26.90;60.30
23291;DHT22;11814;44.686;10.842;2023-08-30T13:01:49;26.90;60.30
23291;DHT22;11814;44.686;10.842;2023-08-30T13:04:15;26.90;61.20
23291;DHT22;11814;44.686;10.842;2023-08-30T13:06:41;26.90;62.80
23291;DHT22;11814;44.686;10.842;2023-08-30T13:09:06;26.90;63.50
23291;DHT22;11814;44.686;10.842;2023-08-30T13:11:32;27.00;63.60
23291;DHT22;11814;44.686;10.842;2023-08-30T13:13:58;27.00;62.40
23291;DHT22;11814;44.686;10.842;2023-08-30T13:16:24;27.00;62.30
23291;DHT22;11814;44.686;10.842;2023-08-30T13:18:50;27.00;63.20
23291;DHT22;11814;44.686;10.842;2023-08-30T13:21:16;27.00;62.80
23291;DHT22;11814;44.686;10.842;2023-08-30T13:23:41;27.00;63.10
23291;DHT22;11814;44.686;10.842;2023-08-30T13:26:07;27.00;63.50
23291;DHT22;11814;44.686;10.842;2023-08-30T13:28:33;27.00;63.90
23291;DHT22;11814;44.686;10.842;2023-08-30T13:30:59;27.00;64.10
23291;DHT22;11814;44.686;10.842;2023-08-30T13:33:26;27.10;64.10
23291;DHT22;11814;44.686;10.842;2023-08-30T13:35:52;27.10;63.40
23291;DHT22;11814;44.686;10.842;2023-08-30T13:38:19;27.00;62.90
23291;DHT22;11814;44.686;10.842;2023-08-30T13:40:45;26.90;64.30
23291;DHT22;11814;44.686;10.842;2023-08-30T13:43:11;26.90;63.80
23291;DHT22;11814;44.686;10.842;2023-08-30T13:45:36;26.90;63.40
23291;DHT22;11814;44.686;10.842;2023-08-30T13:48:02;26.90;63.60
23291;DHT22;11814;44.686;10.842;2023-08-30T13:50:28;26.80;63.80
23291;DHT22;11814;44.686;10.842;2023-08-30T13:52:57;26.90;64.50
23291;DHT22;11814;44.686;10.842;2023-08-30T13:55:23;26.90;64.90
23291;DHT22;11814;44.686;10.842;2023-08-30T13:57:49;26.90;64.50
23291;DHT22;11814;44.686;10.842;2023-08-30T14:00:15;26.80;64.80
23291;DHT22;11814;44.686;10.842;2023-08-30T14:02:40;26.80;65.60
23291;DHT22;11814;44.686;10.842;2023-08-30T14:05:07;26.80;65.00
23291;DHT22;11814;44.686;10.842;2023-08-30T14:07:33;26.80;65.00
23291;DHT22;11814;44.686;10.842;2023-08-30T14:09:59;26.80;64.30
23291;DHT22;11814;44.686;10.842;2023-08-30T14:12:25;26.70;64.40
23291;DHT22;11814;44.686;10.842;2023-08-30T14:14:51;26.80;64.80
23291;DHT22;11814;44.686;10.842;2023-08-30T14:17:18;26.90;65.10
23291;DHT22;11814;44.686;10.842;2023-08-30T14:19:44;26.80;64.20
23291;DHT22;11814;44.686;10.842;2023-08-30T14:22:09;26.80;64.00
23291;DHT22;11814;44.686;10.842;2023-08-30T14:24:35;26.90;64.00
23291;DHT22;11814;44.686;10.842;2023-08-30T14:27:01;26.90;64.30
23291;DHT22;11814;44.686;10.842;2023-08-30T14:29:26;26.90;65.00
23291;DHT22;11814;44.686;10.842;2023-08-30T14:31:52;26.90;65.40
23291;DHT22;11814;44.686;10.842;2023-08-30T14:34:19;26.80;65.80
23291;DHT22;11814;44.686;10.842;2023-08-30T14:36:45;26.80;65.90
23291;DHT22;11814;44.686;10.842;2023-08-30T14:39:11;26.80;66.10
23291;DHT22;11814;44.686;10.842;2023-08-30T14:41:37;26.80;66.50
23291;DHT22;11814;44.686;10.842;2023-08-30T14:44:03;26.80;66.80
23291;DHT22;11814;44.686;10.842;2023-08-30T14:46:29;26.80;66.60
23291;DHT22;11814;44.686;10.842;2023-08-30T14:48:55;26.80;66.90
23291;DHT22;11814;44.686;10.842;2023-08-30T14:51:20;26.70;67.00
23291;DHT22;11814;44.686;10.842;2023-08-30T14:53:46;26.70;67.20
23291;DHT22;11814;44.686;10.842;2023-08-30T14:56:12;26.70;67.60
23291;DHT22;11814;44.686;10.842;2023-08-30T14:58:37;26.80;67.90
23291;DHT22;11814;44.686;10.842;2023-08-30T15:01:04;26.90;67.90
23291;DHT22;11814;44.686;10.842;2023-08-30T15:03:30;26.80;67.90
23291;DHT22;11814;44.686;10.842;2023-08-30T15:05:56;26.70;67.90
23291;DHT22;11814;44.686;10.842;2023-08-30T15:08:23;26.70;68.10
23291;DHT22;11814;44.686;10.842;2023-08-30T15:10:49;26.70;68.20
23291;DHT22;11814;44.686;10.842;2023-08-30T15:13:17;26.60;68.10
23291;DHT22;11814;44.686;10.842;2023-08-30T15:15:42;26.60;68.40
23291;DHT22;11814;44.686;10.842;2023-08-30T15:18:08;26.60;68.70
23291;DHT22;11814;44.686;10.842;2023-08-30T15:20:36;26.60;68.90